Bookmark and Share
Track history (hours):
 

Betancuria

Last reported at 2012-Oct-28 18:33 UTC. Time now 2014-Apr-24 04:03 UTC.
Position N 63°11' E 020°39'.
Warning: this ship's position is years out of date!

Length 141 m; draft 4.7 m.

Type: Ship. MMSI: 224471000.

NotesDate/timePositionNaut miles runAvg speedWind from/ knotsBaromVisibWave heightAir tempDewpointWater temp
2012-Oct-28 18:33N 63°11' E 020°39'1515.4
2012-Oct-28 17:33N 62°56' E 020°28'1615.6
2012-Oct-28 16:31N 62°41' E 020°19'13915.5
2012-Oct-28 07:33N 60°26' E 019°03'1514.7
2012-Oct-28 06:33N 60°12' E 019°06'12612.6
2012-Oct-27 20:33N 58°07' E 018°31'4515.1
2012-Oct-27 17:33N 57°28' E 017°48'1515.3
2012-Oct-27 16:33N 57°14' E 017°38'1515.4
2012-Oct-27 15:33N 56°60' E 017°28'1515.5
2012-Oct-27 14:33N 56°45' E 017°17'4615.2
2012-Oct-27 11:33N 56°03' E 016°44'3115.4
2012-Oct-27 09:33N 55°48' E 015°56'1515.4
2012-Oct-27 08:33N 55°40' E 015°32'1515.3
2012-Oct-27 07:33N 55°33' E 015°09'1515.4
2012-Oct-27 06:33N 55°26' E 014°45'1515.1
2012-Oct-27 05:33N 55°15' E 014°26'1414.2
2012-Oct-27 04:36N 55°10' E 014°04'1715.6
2012-Oct-27 03:32N 55°12' E 013°35'1515.6
2012-Oct-27 02:33N 55°13' E 013°09'1515.2
2012-Oct-27 01:33N 55°17' E 012°42'1313.0
2012-Oct-27 00:33N 55°30' E 012°43'1010.3
2012-Oct-26 23:33N 55°38' E 012°55'7 6.9
2012-Oct-26 22:34N 55°44' E 012°51'1716.8
2012-Oct-26 21:34N 55°60' E 012°40'1716.7
2012-Oct-26 20:34N 56°11' E 012°19'1615.8
2012-Oct-26 19:33N 56°24' E 012°00'1616.5
2012-Oct-26 18:33N 56°40' E 011°55'1716.5
2012-Oct-26 17:33N 56°55' E 011°45'1716.6
2012-Oct-26 16:33N 57°11' E 011°34'1716.7
2012-Oct-26 15:34N 57°27' E 011°24'1515.4
2012-Oct-26 14:34N 57°36' E 011°02'1514.7
2012-Oct-26 13:33N 57°43' E 010°37'0 0.2
2012-Oct-26 12:33N 57°42' E 010°37'0 0.0
2012-Oct-26 09:33N 57°42' E 010°37'0 0.0
2012-Oct-26 08:33N 57°42' E 010°37'0 0.0
2012-Oct-26 06:24N 57°42' E 010°37'6 6.7
2012-Oct-26 05:33N 57°44' E 010°47'1314.0
2012-Oct-26 04:36N 57°55' E 010°33'37111.9
2012-Oct-24 21:33N 52°52' E 004°15'1515.0
2012-Oct-24 20:33N 52°41' E 003°60'1514.6
2012-Oct-24 19:32N 52°29' E 003°43'1414.0
2012-Oct-24 18:32N 52°21' E 003°26'5313.1
2012-Oct-24 14:32N 51°41' E 002°31'1414.6
2012-Oct-24 13:33N 51°29' E 002°16'1514.7
2012-Oct-24 12:33N 51°16' E 002°06'1514.7
2012-Oct-24 11:33N 51°08' E 001°46'1415.5
2012-Oct-24 10:39N 50°58' E 001°31'2016.1
2012-Oct-24 09:26N 50°40' E 001°17'1415.8
2012-Oct-24 08:34N 50°32' E 000°60'1515.1
2012-Oct-24 07:33N 50°26' E 000°38'9916.3
2012-Oct-24 01:30N 50°01' W 001°51'1716.3
2012-Oct-24 00:29N 49°56' W 002°16'1615.6
2012-Oct-23 23:27N 49°51' W 002°40'3014.9
2012-Oct-23 21:27N 49°38' W 003°21'1614.6
2012-Oct-23 20:23N 49°30' W 003°42'  
2012-Oct-18 20:33N 28°17' W 015°19'1010.5
2012-Oct-18 19:34N 28°08' W 015°25'  

Dump ship's entire track history

sailing weather and tide predictions

Betancuria — EAMH — position and weather